Observations for LAMEZIA TERME, Italy (LICA)

LICA 180650Z VRB03KT 9999 FEW015 23/19 Q1014
LICA 180550Z 09002KT 9999 FEW015 23/20 Q1014
LICA 180450Z 09004KT 9999 SCT015 19/18 Q1014
LICA 180350Z 08005KT 9999 FEW015 18/17 Q1014
LICA 180250Z 09004KT 9999 FEW015 19/17 Q1013
LICA 180150Z 06004KT 9999 SCT015 19/18 Q1013
LICA 172250Z VRB02KT 9999 SCT015 21/18 Q1014
LICA 172150Z VRB02KT 9999 SCT015 23/20 Q1014
LICA 172050Z 00000KT 9999 SCT015 24/21 Q1013
LICA 171950Z 29004KT 9999 SCT015 24/21 Q1013
LICA 171850Z 25006KT 9999 SCT015 25/21 Q1013
LICA 171750Z 25007KT 9999 FEW020 25/22 Q1013
LICA 171650Z 25009KT CAVOK 26/21 Q1013  
LICA 171550Z 25008KT 9999 FEW020 26/21 Q1012
LICA 171450Z 26010KT 9999 FEW020 SCT080 27/21 Q1013 
LICA 171350Z 26009KT 9999 FEW020 SCT080 26/21 Q1013 
LICA 171250Z 26011KT 9999 FEW030 27/21 Q1013
LICA 171150Z 27012KT 9999 FEW030 27/21 Q1013
LICA 171050Z 27010KT 9999 FEW025 27/21 Q1014
LICA 170950Z 26009KT 9999 FEW020 26/21 Q1014
LICA 170850Z 24006KT 9999 SCT020 26/21 Q1014
LICA 170750Z 22009KT 9999 BKN020 25/21 Q1014
LICA 170650Z 25007KT 9999 BKN020 25/21 Q1014